createdAt,value
2018-07-23T00:00:14.505Z,1017.99
2018-07-23T00:01:14.442Z,1017.96
2018-07-23T00:02:14.601Z,1017.95
2018-07-23T00:03:14.530Z,1017.95
2018-07-23T00:04:14.467Z,1017.96
2018-07-23T00:05:14.460Z,1018
2018-07-23T00:06:14.538Z,1017.97
2018-07-23T00:07:14.460Z,1018.01
2018-07-23T00:08:14.441Z,1018
2018-07-23T00:09:14.517Z,1018.01
2018-07-23T00:10:14.443Z,1018.06
2018-07-23T00:11:14.442Z,1018.06
2018-07-23T00:12:14.467Z,1018.03
2018-07-23T00:13:14.454Z,1018.06
2018-07-23T00:14:14.488Z,1018.03
2018-07-23T00:15:14.477Z,1018.06
2018-07-23T00:16:14.448Z,1018.08
2018-07-23T00:17:14.451Z,1018.05
2018-07-23T00:18:14.455Z,1018.03
2018-07-23T00:19:15.433Z,1018.03
2018-07-23T00:20:14.472Z,1017.96
2018-07-23T00:21:14.475Z,1018.04
2018-07-23T00:22:14.488Z,1018.03
2018-07-23T00:23:14.516Z,1018.04
2018-07-23T00:24:14.527Z,1018.01
2018-07-23T00:25:14.548Z,1018.03
2018-07-23T00:26:14.457Z,1018.03
2018-07-23T00:27:14.465Z,1018
2018-07-23T00:28:14.472Z,1018.05
2018-07-23T00:29:14.468Z,1017.99
2018-07-23T00:30:14.514Z,1018
2018-07-23T00:31:14.488Z,1018
2018-07-23T00:32:14.465Z,1017.95
2018-07-23T00:33:14.504Z,1017.95
2018-07-23T00:34:14.763Z,1017.96
2018-07-23T00:35:14.470Z,1017.96
2018-07-23T00:36:14.482Z,1017.95
2018-07-23T00:37:14.486Z,1017.96
2018-07-23T00:38:14.481Z,1017.96
2018-07-23T00:39:14.497Z,1017.99
2018-07-23T00:40:14.475Z,1017.96
2018-07-23T00:41:14.465Z,1018.01
2018-07-23T00:42:14.472Z,1017.96
2018-07-23T00:43:14.507Z,1017.97
2018-07-23T00:44:14.474Z,1017.98
2018-07-23T00:45:14.505Z,1018.01
2018-07-23T00:46:14.482Z,1017.97
2018-07-23T00:47:14.505Z,1017.93
2018-07-23T00:48:14.476Z,1017.97
2018-07-23T00:49:14.464Z,1017.96
2018-07-23T00:50:14.493Z,1017.91
2018-07-23T00:51:14.555Z,1017.91
2018-07-23T00:52:14.528Z,1017.94
2018-07-23T00:53:14.538Z,1017.97
2018-07-23T00:54:14.530Z,1017.95
2018-07-23T00:55:14.512Z,1017.97
2018-07-23T00:56:14.468Z,1017.97
2018-07-23T00:57:14.524Z,1017.99
2018-07-23T00:58:14.523Z,1018.01
2018-07-23T00:59:14.492Z,1017.97
2018-07-23T01:00:14.677Z,1017.99
2018-07-23T01:01:14.519Z,1017.95
2018-07-23T01:02:14.506Z,1017.95
2018-07-23T01:03:14.526Z,1017.99
2018-07-23T01:04:14.733Z,1017.98
2018-07-23T01:05:14.501Z,1017.96
2018-07-23T01:06:14.504Z,1017.96
2018-07-23T01:07:14.482Z,1017.99
2018-07-23T01:08:14.520Z,1017.98
2018-07-23T01:09:14.554Z,1018.01
2018-07-23T01:10:14.524Z,1018.01
2018-07-23T01:11:14.525Z,1018.01
2018-07-23T01:12:14.502Z,1018.03
2018-07-23T01:13:14.487Z,1018.01
2018-07-23T01:14:14.531Z,1018.02
2018-07-23T01:15:14.538Z,1018.03
2018-07-23T01:16:14.608Z,1018.05
2018-07-23T01:17:14.536Z,1018.04
2018-07-23T01:18:14.471Z,1018.04
2018-07-23T01:19:14.584Z,1018.02
2018-07-23T01:20:14.500Z,1018.01
2018-07-23T01:21:14.535Z,1017.99
2018-07-23T01:22:14.601Z,1017.99
2018-07-23T01:23:14.549Z,1017.94
2018-07-23T01:24:14.529Z,1017.88
2018-07-23T01:25:14.618Z,1017.93
2018-07-23T01:26:14.520Z,1017.92
2018-07-23T01:27:14.531Z,1017.94
2018-07-23T01:28:14.557Z,1017.95
2018-07-23T01:29:14.557Z,1017.97
2018-07-23T01:30:14.502Z,1017.95
2018-07-23T01:31:14.662Z,1017.98
2018-07-23T01:32:14.502Z,1018.01
2018-07-23T01:33:14.520Z,1018
2018-07-23T01:34:14.520Z,1018.02
2018-07-23T01:35:14.540Z,1017.97
2018-07-23T01:36:14.660Z,1018.02
2018-07-23T01:37:14.547Z,1018.01
2018-07-23T01:38:14.544Z,1018
2018-07-23T01:39:14.670Z,1018.02
2018-07-23T01:40:14.636Z,1017.98
2018-07-23T01:41:14.531Z,1018.03
2018-07-23T01:42:14.602Z,1017.99
2018-07-23T01:43:14.562Z,1018.01
2018-07-23T01:44:14.559Z,1017.97
2018-07-23T01:45:14.564Z,1018
2018-07-23T01:46:14.545Z,1017.97
2018-07-23T01:47:14.537Z,1017.97
2018-07-23T01:48:14.527Z,1017.98
2018-07-23T01:49:14.584Z,1017.95
2018-07-23T01:50:14.581Z,1017.98
2018-07-23T01:51:14.547Z,1017.99
2018-07-23T01:52:14.595Z,1018
2018-07-23T01:53:14.561Z,1017.98
2018-07-23T01:54:14.575Z,1017.98
2018-07-23T01:55:14.575Z,1018.01
2018-07-23T01:56:14.582Z,1017.98
2018-07-23T01:57:14.551Z,1017.98
2018-07-23T01:58:14.565Z,1017.97
2018-07-23T01:59:14.552Z,1017.97
2018-07-23T02:00:14.607Z,1017.98
2018-07-23T02:01:14.518Z,1017.98
2018-07-23T02:02:14.514Z,1017.96
2018-07-23T02:03:14.629Z,1018
2018-07-23T02:04:14.536Z,1018.02
2018-07-23T02:05:14.579Z,1018.03
2018-07-23T02:06:14.539Z,1018.02
2018-07-23T02:07:14.551Z,1018.04
2018-07-23T02:08:14.547Z,1018.04
2018-07-23T02:09:14.560Z,1018.08
2018-07-23T02:10:14.576Z,1018.06
2018-07-23T02:11:14.573Z,1018.09
2018-07-23T02:12:14.548Z,1018.09
2018-07-23T02:13:14.694Z,1018.11
2018-07-23T02:14:14.588Z,1018.08
2018-07-23T02:15:14.555Z,1018.07
2018-07-23T02:16:14.579Z,1018.12
2018-07-23T02:17:14.559Z,1018.1
2018-07-23T02:18:14.740Z,1018.13
2018-07-23T02:19:14.629Z,1018.14
2018-07-23T02:20:14.614Z,1018.16
2018-07-23T02:21:14.588Z,1018.18
2018-07-23T02:22:14.785Z,1018.16
2018-07-23T02:23:14.576Z,1018.15
2018-07-23T02:24:14.629Z,1018.18
2018-07-23T02:25:14.576Z,1018.17
2018-07-23T02:26:14.946Z,1018.17
2018-07-23T02:27:14.588Z,1018.18
2018-07-23T02:28:14.615Z,1018.16
2018-07-23T02:29:14.552Z,1018.17
2018-07-23T02:30:14.641Z,1018.12
2018-07-23T02:31:14.670Z,1018.17
2018-07-23T02:32:14.609Z,1018.18
2018-07-23T02:33:14.636Z,1018.16
2018-07-23T02:34:14.594Z,1018.15
2018-07-23T02:35:14.605Z,1018.14
2018-07-23T02:36:14.566Z,1018.15
2018-07-23T02:37:14.877Z,1018.15
2018-07-23T02:38:14.606Z,1018.18
2018-07-23T02:39:14.606Z,1018.16
2018-07-23T02:40:14.594Z,1018.15
2018-07-23T02:41:14.602Z,1018.17
2018-07-23T02:42:14.629Z,1018.19
2018-07-23T02:43:14.607Z,1018.22
2018-07-23T02:44:14.596Z,1018.15
2018-07-23T02:45:14.590Z,1018.19
2018-07-23T02:46:14.638Z,1018.16
2018-07-23T02:47:14.610Z,1018.17
2018-07-23T02:48:14.722Z,1018.15
2018-07-23T02:49:14.661Z,1018.18
2018-07-23T02:50:14.614Z,1018.19
2018-07-23T02:51:14.568Z,1018.23
2018-07-23T02:52:14.618Z,1018.23
2018-07-23T02:53:14.637Z,1018.25
2018-07-23T02:54:14.589Z,1018.28
2018-07-23T02:55:14.670Z,1018.27
2018-07-23T02:56:14.729Z,1018.24
2018-07-23T02:57:14.620Z,1018.26
2018-07-23T02:58:14.617Z,1018.23
2018-07-23T02:59:14.682Z,1018.24
2018-07-23T03:00:14.601Z,1018.24
2018-07-23T03:01:14.672Z,1018.22
2018-07-23T03:02:15.319Z,1018.2
2018-07-23T03:03:14.623Z,1018.2
2018-07-23T03:04:14.607Z,1018.18
2018-07-23T03:05:14.665Z,1018.18
2018-07-23T03:06:14.673Z,1018.2
2018-07-23T03:07:14.581Z,1018.22
2018-07-23T03:08:14.588Z,1018.2
2018-07-23T03:09:14.615Z,1018.22
2018-07-23T03:10:14.603Z,1018.23
2018-07-23T03:11:14.607Z,1018.25
2018-07-23T03:12:14.613Z,1018.25
2018-07-23T03:13:14.622Z,1018.21
2018-07-23T03:14:14.582Z,1018.21
2018-07-23T03:15:14.664Z,1018.27
2018-07-23T03:16:14.649Z,1018.27
2018-07-23T03:17:14.593Z,1018.3
2018-07-23T03:18:14.620Z,1018.29
2018-07-23T03:19:14.607Z,1018.32
2018-07-23T03:20:14.614Z,1018.31
2018-07-23T03:21:14.621Z,1018.34
2018-07-23T03:22:14.581Z,1018.36
2018-07-23T03:23:14.590Z,1018.39
2018-07-23T03:24:14.610Z,1018.38
2018-07-23T03:25:14.607Z,1018.4
2018-07-23T03:26:14.625Z,1018.39
2018-07-23T03:27:14.618Z,1018.39
2018-07-23T03:28:14.601Z,1018.39
2018-07-23T03:29:14.580Z,1018.45
2018-07-23T03:30:14.608Z,1018.4
2018-07-23T03:31:14.681Z,1018.44
2018-07-23T03:32:14.783Z,1018.41
2018-07-23T03:33:15.322Z,1018.42
2018-07-23T03:34:15.729Z,1018.48
2018-07-23T03:35:14.632Z,1018.46
2018-07-23T03:36:14.645Z,1018.47
2018-07-23T03:37:14.627Z,1018.49
2018-07-23T03:38:14.610Z,1018.51
2018-07-23T03:39:14.699Z,1018.54
2018-07-23T03:40:14.815Z,1018.54
2018-07-23T03:41:14.680Z,1018.49
2018-07-23T03:42:14.643Z,1018.56
2018-07-23T03:43:14.707Z,1018.59
2018-07-23T03:44:14.661Z,1018.58
2018-07-23T03:45:14.624Z,1018.6
2018-07-23T03:46:14.791Z,1018.6
2018-07-23T03:47:14.625Z,1018.63
2018-07-23T03:48:14.664Z,1018.66
2018-07-23T03:49:14.903Z,1018.66
2018-07-23T03:50:14.732Z,1018.65
2018-07-23T03:51:14.664Z,1018.66
2018-07-23T03:52:14.677Z,1018.67
2018-07-23T03:53:14.798Z,1018.67
2018-07-23T03:54:14.695Z,1018.67
2018-07-23T03:55:14.739Z,1018.68
2018-07-23T03:56:14.642Z,1018.71
2018-07-23T03:57:14.640Z,1018.69
2018-07-23T03:58:14.706Z,1018.72
2018-07-23T03:59:14.953Z,1018.71
2018-07-23T04:00:14.644Z,1018.72
2018-07-23T04:01:14.788Z,1018.75
2018-07-23T04:02:14.607Z,1018.74
2018-07-23T04:03:14.612Z,1018.77
2018-07-23T04:04:14.863Z,1018.74
2018-07-23T04:05:15.356Z,1018.78
2018-07-23T04:06:14.634Z,1018.79
2018-07-23T04:07:14.718Z,1018.8
2018-07-23T04:08:14.686Z,1018.8
2018-07-23T04:09:14.699Z,1018.83
2018-07-23T04:10:14.642Z,1018.79
2018-07-23T04:11:14.707Z,1018.8
2018-07-23T04:12:14.645Z,1018.82
2018-07-23T04:13:14.657Z,1018.81
2018-07-23T04:14:14.672Z,1018.83
2018-07-23T04:15:14.748Z,1018.8
2018-07-23T04:16:14.892Z,1018.82
2018-07-23T04:17:14.715Z,1018.81
2018-07-23T04:18:14.693Z,1018.81
2018-07-23T04:19:14.642Z,1018.8
2018-07-23T04:20:14.625Z,1018.82
2018-07-23T04:21:14.660Z,1018.83
2018-07-23T04:22:14.639Z,1018.83
2018-07-23T04:23:14.651Z,1018.82
2018-07-23T04:24:14.752Z,1018.91
2018-07-23T04:25:14.660Z,1018.85
2018-07-23T04:26:14.729Z,1018.86
2018-07-23T04:27:14.628Z,1018.87
2018-07-23T04:28:14.682Z,1018.89
2018-07-23T04:29:14.689Z,1018.91
2018-07-23T04:30:14.661Z,1018.94
2018-07-23T04:31:14.654Z,1018.93
2018-07-23T04:32:14.687Z,1018.95
2018-07-23T04:33:14.637Z,1018.96
2018-07-23T04:34:14.680Z,1018.95
2018-07-23T04:35:14.732Z,1018.96
2018-07-23T04:36:14.994Z,1018.94
2018-07-23T04:37:14.671Z,1018.94
2018-07-23T04:38:14.673Z,1018.94
2018-07-23T04:39:14.747Z,1018.92
2018-07-23T04:40:14.675Z,1018.95
2018-07-23T04:41:14.671Z,1018.94
2018-07-23T04:42:14.787Z,1018.96
2018-07-23T04:43:14.670Z,1018.98
2018-07-23T04:44:14.649Z,1018.98
2018-07-23T04:45:14.696Z,1018.97
2018-07-23T04:46:14.833Z,1018.97
2018-07-23T04:47:14.667Z,1018.98
2018-07-23T04:48:14.645Z,1018.96
2018-07-23T04:49:15.015Z,1018.97
2018-07-23T04:50:14.678Z,1019
2018-07-23T04:51:14.656Z,1018.97
2018-07-23T04:52:14.759Z,1019
2018-07-23T04:53:14.785Z,1018.99
2018-07-23T04:54:14.704Z,1018.99
2018-07-23T04:55:14.678Z,1018.98
2018-07-23T04:56:14.685Z,1018.98
2018-07-23T04:57:15.009Z,1018.96
2018-07-23T04:58:14.669Z,1018.95
2018-07-23T04:59:14.685Z,1018.98
2018-07-23T05:00:14.686Z,1018.98
2018-07-23T05:01:14.757Z,1018.99
2018-07-23T05:02:14.745Z,1018.97
2018-07-23T05:03:14.691Z,1019
2018-07-23T05:04:14.731Z,1019.02
2018-07-23T05:05:14.763Z,1019.02
2018-07-23T05:06:14.762Z,1019.02
2018-07-23T05:07:14.733Z,1018.99
2018-07-23T05:08:14.755Z,1018.99
2018-07-23T05:09:14.675Z,1018.99
2018-07-23T05:10:14.745Z,1019.04
2018-07-23T05:11:14.725Z,1019.05
2018-07-23T05:12:14.697Z,1019.05
2018-07-23T05:13:14.681Z,1019.05
2018-07-23T05:14:14.831Z,1019.06
2018-07-23T05:15:14.720Z,1019.05
2018-07-23T05:16:14.696Z,1019.06
2018-07-23T05:17:14.748Z,1019.09
2018-07-23T05:18:14.745Z,1019.08
2018-07-23T05:19:14.662Z,1019.07
2018-07-23T05:20:14.688Z,1019.07
2018-07-23T05:21:14.779Z,1019.06
2018-07-23T05:22:14.730Z,1019.13
2018-07-23T05:23:14.678Z,1019.14
2018-07-23T05:24:14.719Z,1019.17
2018-07-23T05:25:14.773Z,1019.2
2018-07-23T05:26:14.901Z,1019.15
2018-07-23T05:27:15.385Z,1019.12
2018-07-23T05:28:14.699Z,1019.17
2018-07-23T05:29:14.701Z,1019.17
2018-07-23T05:30:14.669Z,1019.15
2018-07-23T05:31:14.764Z,1019.18
2018-07-23T05:32:14.705Z,1019.19
2018-07-23T05:33:14.770Z,1019.2
2018-07-23T05:34:14.728Z,1019.15
2018-07-23T05:35:14.698Z,1019.18
2018-07-23T05:36:14.673Z,1019.2
2018-07-23T05:37:14.697Z,1019.19
2018-07-23T05:38:14.775Z,1019.22
2018-07-23T05:39:14.778Z,1019.27
2018-07-23T05:40:14.833Z,1019.22
2018-07-23T05:41:14.733Z,1019.21
2018-07-23T05:42:14.708Z,1019.22
2018-07-23T05:43:14.748Z,1019.23
2018-07-23T05:44:14.746Z,1019.21
2018-07-23T05:45:14.697Z,1019.27
2018-07-23T05:46:14.945Z,1019.21
2018-07-23T05:47:14.709Z,1019.27
2018-07-23T05:48:14.702Z,1019.26
2018-07-23T05:49:14.698Z,1019.27
2018-07-23T05:50:14.694Z,1019.27
2018-07-23T05:51:14.700Z,1019.26
2018-07-23T05:52:14.730Z,1019.28
2018-07-23T05:53:14.695Z,1019.31
2018-07-23T05:54:14.785Z,1019.28
2018-07-23T05:55:14.723Z,1019.29
2018-07-23T05:56:14.783Z,1019.3
2018-07-23T05:57:14.740Z,1019.32
2018-07-23T05:58:14.705Z,1019.36
2018-07-23T05:59:14.729Z,1019.35
2018-07-23T06:00:14.731Z,1019.34
2018-07-23T06:01:14.726Z,1019.36
2018-07-23T06:02:14.776Z,1019.38
2018-07-23T06:03:14.709Z,1019.35
2018-07-23T06:04:14.724Z,1019.37
2018-07-23T06:05:14.697Z,1019.35
2018-07-23T06:06:14.783Z,1019.39
2018-07-23T06:07:14.712Z,1019.41
2018-07-23T06:08:14.845Z,1019.41
2018-07-23T06:09:14.893Z,1019.4
2018-07-23T06:10:15.078Z,1019.43
2018-07-23T06:11:14.734Z,1019.45
2018-07-23T06:12:14.747Z,1019.42
2018-07-23T06:13:14.880Z,1019.45
2018-07-23T06:14:14.786Z,1019.47
2018-07-23T06:15:14.730Z,1019.52
2018-07-23T06:16:14.716Z,1019.52
2018-07-23T06:17:14.731Z,1019.55
2018-07-23T06:18:14.712Z,1019.54
2018-07-23T06:19:14.767Z,1019.57
2018-07-23T06:20:14.797Z,1019.57
2018-07-23T06:21:14.937Z,1019.52
2018-07-23T06:22:14.770Z,1019.56
2018-07-23T06:23:14.890Z,1019.56
2018-07-23T06:24:14.741Z,1019.57
2018-07-23T06:25:14.913Z,1019.56
2018-07-23T06:26:14.792Z,1019.61
2018-07-23T06:27:14.779Z,1019.57
2018-07-23T06:28:14.761Z,1019.59
2018-07-23T06:29:14.798Z,1019.6
2018-07-23T06:30:14.899Z,1019.59
2018-07-23T06:31:14.732Z,1019.59
2018-07-23T06:32:15.023Z,1019.63
2018-07-23T06:33:14.741Z,1019.63
2018-07-23T06:34:14.738Z,1019.62
2018-07-23T06:35:14.713Z,1019.61
2018-07-23T06:36:14.768Z,1019.64
2018-07-23T06:37:14.750Z,1019.65
2018-07-23T06:38:14.870Z,1019.65
2018-07-23T06:39:14.764Z,1019.63
2018-07-23T06:40:15.510Z,1019.68
2018-07-23T06:41:14.725Z,1019.65
2018-07-23T06:42:15.714Z,1019.66
2018-07-23T06:43:14.790Z,1019.64
2018-07-23T06:44:14.750Z,1019.71
2018-07-23T06:45:14.779Z,1019.68
2018-07-23T06:46:14.839Z,1019.67
2018-07-23T06:47:14.762Z,1019.67
2018-07-23T06:48:14.745Z,1019.64
2018-07-23T06:49:15.016Z,1019.68
2018-07-23T06:50:14.769Z,1019.69
2018-07-23T06:51:14.765Z,1019.68
2018-07-23T06:52:14.984Z,1019.68
2018-07-23T06:53:14.756Z,1019.66
2018-07-23T06:54:14.764Z,1019.69
2018-07-23T06:55:14.748Z,1019.7
2018-07-23T06:56:14.756Z,1019.67
2018-07-23T06:57:14.770Z,1019.71
2018-07-23T06:58:14.774Z,1019.73
2018-07-23T06:59:14.926Z,1019.73
2018-07-23T07:00:15.049Z,1019.75
2018-07-23T07:01:14.789Z,1019.76
2018-07-23T07:02:14.827Z,1019.76
2018-07-23T07:03:14.906Z,1019.76
2018-07-23T07:04:14.763Z,1019.78
2018-07-23T07:05:14.967Z,1019.76
2018-07-23T07:06:14.856Z,1019.8
2018-07-23T07:07:14.734Z,1019.83
2018-07-23T07:08:14.782Z,1019.81
2018-07-23T07:09:14.742Z,1019.8
2018-07-23T07:10:14.800Z,1019.85
2018-07-23T07:11:14.764Z,1019.85
2018-07-23T07:12:14.817Z,1019.82
2018-07-23T07:13:14.767Z,1019.83
2018-07-23T07:14:14.880Z,1019.86
2018-07-23T07:15:14.749Z,1019.81
2018-07-23T07:16:14.826Z,1019.84
2018-07-23T07:17:14.821Z,1019.83
2018-07-23T07:18:14.774Z,1019.88
2018-07-23T07:19:14.774Z,1019.86
2018-07-23T07:20:22.719Z,1019.83
2018-07-23T07:21:14.782Z,1019.84
2018-07-23T07:22:14.789Z,1019.85
2018-07-23T07:23:14.782Z,1019.82
2018-07-23T07:24:14.800Z,1019.87
2018-07-23T07:25:14.805Z,1019.82
2018-07-23T07:26:14.806Z,1019.81
2018-07-23T07:27:14.759Z,1019.84
2018-07-23T07:28:14.959Z,1019.84
2018-07-23T07:29:14.949Z,1019.83
2018-07-23T07:30:14.989Z,1019.88
2018-07-23T07:31:14.831Z,1019.85
2018-07-23T07:32:14.983Z,1019.85
2018-07-23T07:33:14.966Z,1019.78
2018-07-23T07:34:14.772Z,1019.82
2018-07-23T07:35:15.092Z,1019.83
2018-07-23T07:36:14.797Z,1019.84
2018-07-23T07:37:14.986Z,1019.87
2018-07-23T07:38:14.950Z,1019.86
2018-07-23T07:39:14.805Z,1019.87
2018-07-23T07:40:14.777Z,1019.83
2018-07-23T07:41:14.908Z,1019.87
2018-07-23T07:42:14.889Z,1019.84
2018-07-23T07:43:14.911Z,1019.85
2018-07-23T07:44:14.776Z,1019.85
2018-07-23T07:45:14.895Z,1019.83
2018-07-23T07:46:14.757Z,1019.84
2018-07-23T07:47:14.919Z,1019.84
2018-07-23T07:48:14.867Z,1019.81
2018-07-23T07:49:14.990Z,1019.84
2018-07-23T07:50:14.926Z,1019.85
2018-07-23T07:51:14.775Z,1019.8
2018-07-23T07:52:15.052Z,1019.8
2018-07-23T07:53:14.796Z,1019.81
2018-07-23T07:54:14.903Z,1019.84
2018-07-23T07:55:14.932Z,1019.82
2018-07-23T07:56:15.088Z,1019.77
2018-07-23T07:57:14.845Z,1019.8
2018-07-23T07:58:14.837Z,1019.79
2018-07-23T07:59:15.118Z,1019.79
2018-07-23T08:00:14.842Z,1019.79
2018-07-23T08:01:14.975Z,1019.78
2018-07-23T08:02:14.920Z,1019.74
2018-07-23T08:03:14.819Z,1019.8
2018-07-23T08:04:14.929Z,1019.81
2018-07-23T08:05:14.866Z,1019.76
2018-07-23T08:06:14.944Z,1019.77
2018-07-23T08:07:14.967Z,1019.8
2018-07-23T08:08:14.955Z,1019.78
2018-07-23T08:09:14.922Z,1019.77
2018-07-23T08:10:14.860Z,1019.78
2018-07-23T08:11:14.840Z,1019.74
2018-07-23T08:12:14.827Z,1019.75
2018-07-23T08:13:14.816Z,1019.74
2018-07-23T08:14:15.077Z,1019.71
2018-07-23T08:15:14.800Z,1019.73
2018-07-23T08:16:14.798Z,1019.74
2018-07-23T08:17:14.811Z,1019.73
2018-07-23T08:18:14.880Z,1019.72
2018-07-23T08:19:14.864Z,1019.7
2018-07-23T08:20:14.954Z,1019.71
2018-07-23T08:21:14.868Z,1019.77
2018-07-23T08:22:14.923Z,1019.71
2018-07-23T08:23:14.811Z,1019.73
2018-07-23T08:24:14.878Z,1019.71
2018-07-23T08:25:15.060Z,1019.69
2018-07-23T08:26:14.900Z,1019.7
2018-07-23T08:27:14.939Z,1019.67
2018-07-23T08:28:14.836Z,1019.67
2018-07-23T08:29:14.796Z,1019.65
2018-07-23T08:30:14.850Z,1019.67
2018-07-23T08:31:14.937Z,1019.62
2018-07-23T08:32:14.937Z,1019.64
2018-07-23T08:33:14.931Z,1019.64
2018-07-23T08:34:14.868Z,1019.67
2018-07-23T08:35:14.841Z,1019.65
2018-07-23T08:36:14.833Z,1019.63
2018-07-23T08:37:14.985Z,1019.64
2018-07-23T08:38:15.923Z,1019.65
2018-07-23T08:39:14.834Z,1019.66
2018-07-23T08:40:14.819Z,1019.66
2018-07-23T08:41:14.882Z,1019.64
2018-07-23T08:42:14.927Z,1019.61
2018-07-23T08:43:14.865Z,1019.65
2018-07-23T08:44:14.899Z,1019.66
2018-07-23T08:45:14.941Z,1019.65
2018-07-23T08:46:14.842Z,1019.69
2018-07-23T08:47:15.041Z,1019.65
2018-07-23T08:48:14.821Z,1019.66
2018-07-23T08:49:14.866Z,1019.65
2018-07-23T08:50:14.948Z,1019.67
2018-07-23T08:51:14.892Z,1019.67
2018-07-23T08:52:15.004Z,1019.65
2018-07-23T08:53:14.829Z,1019.66
2018-07-23T08:54:14.936Z,1019.68
2018-07-23T08:55:14.842Z,1019.67
2018-07-23T08:56:14.977Z,1019.66
2018-07-23T08:57:14.937Z,1019.68
2018-07-23T08:58:14.942Z,1019.66
2018-07-23T08:59:14.949Z,1019.66
2018-07-23T09:00:14.807Z,1019.65
2018-07-23T09:01:14.829Z,1019.68
2018-07-23T09:02:15.702Z,1019.69
2018-07-23T09:03:14.921Z,1019.68
2018-07-23T09:04:14.901Z,1019.66
2018-07-23T09:05:14.948Z,1019.67
2018-07-23T09:06:14.981Z,1019.71
2018-07-23T09:07:15.037Z,1019.69
2018-07-23T09:08:14.929Z,1019.64
2018-07-23T09:09:14.929Z,1019.68
2018-07-23T09:10:14.946Z,1019.65
2018-07-23T09:11:14.920Z,1019.65
2018-07-23T09:12:15.005Z,1019.63
2018-07-23T09:13:14.873Z,1019.64
2018-07-23T09:14:14.827Z,1019.65
2018-07-23T09:15:14.896Z,1019.68
2018-07-23T09:16:14.881Z,1019.66
2018-07-23T09:17:14.983Z,1019.66
2018-07-23T09:18:14.857Z,1019.68
2018-07-23T09:19:14.880Z,1019.67
2018-07-23T09:20:14.953Z,1019.67
2018-07-23T09:21:15.156Z,1019.66
2018-07-23T09:22:15.231Z,1019.67
2018-07-23T09:23:14.918Z,1019.66
2018-07-23T09:24:14.932Z,1019.64
2018-07-23T09:25:14.952Z,1019.62
2018-07-23T09:26:14.957Z,1019.65
2018-07-23T09:27:15.030Z,1019.64
2018-07-23T09:28:14.934Z,1019.65
2018-07-23T09:29:14.963Z,1019.62
2018-07-23T09:30:15.167Z,1019.63
2018-07-23T09:31:15.002Z,1019.61
2018-07-23T09:32:14.939Z,1019.59
2018-07-23T09:33:14.852Z,1019.58
2018-07-23T09:34:15.056Z,1019.6
2018-07-23T09:35:15.066Z,1019.6
2018-07-23T09:36:14.933Z,1019.59
2018-07-23T09:37:15.207Z,1019.56
2018-07-23T09:38:15.994Z,1019.58
2018-07-23T09:39:14.874Z,1019.57
2018-07-23T09:40:14.965Z,1019.51
2018-07-23T09:41:15.673Z,1019.46
2018-07-23T09:42:14.905Z,1019.48
2018-07-23T09:43:14.870Z,1019.51
2018-07-23T09:44:14.884Z,1019.48
2018-07-23T09:45:14.869Z,1019.5
2018-07-23T09:46:14.876Z,1019.48
2018-07-23T09:47:14.939Z,1019.51
2018-07-23T09:48:14.911Z,1019.46
2018-07-23T09:49:14.864Z,1019.52
2018-07-23T09:50:14.847Z,1019.46
2018-07-23T09:51:14.939Z,1019.47
2018-07-23T09:52:14.909Z,1019.46
2018-07-23T09:53:14.878Z,1019.43
2018-07-23T09:54:14.986Z,1019.44
2018-07-23T09:55:14.949Z,1019.39
2018-07-23T09:56:14.955Z,1019.41
2018-07-23T09:57:14.947Z,1019.44
2018-07-23T09:58:14.968Z,1019.37
2018-07-23T09:59:14.965Z,1019.42
2018-07-23T10:00:14.926Z,1019.41
2018-07-23T10:01:14.924Z,1019.41
2018-07-23T10:02:15.042Z,1019.39
2018-07-23T10:03:15.260Z,1019.4
2018-07-23T10:04:14.954Z,1019.38
2018-07-23T10:05:14.963Z,1019.39
2018-07-23T10:06:14.895Z,1019.38
2018-07-23T10:07:15.066Z,1019.35
2018-07-23T10:08:14.959Z,1019.36
2018-07-23T10:09:14.883Z,1019.39
2018-07-23T10:10:14.961Z,1019.35
2018-07-23T10:11:15.030Z,1019.35
2018-07-23T10:12:14.963Z,1019.3
2018-07-23T10:13:14.910Z,1019.34
2018-07-23T10:14:14.927Z,1019.29
2018-07-23T10:15:14.962Z,1019.33
2018-07-23T10:16:14.899Z,1019.3
2018-07-23T10:17:14.939Z,1019.31
2018-07-23T10:18:15.301Z,1019.32
2018-07-23T10:19:14.921Z,1019.28
2018-07-23T10:20:15.181Z,1019.25
2018-07-23T10:21:14.905Z,1019.21
2018-07-23T10:22:14.970Z,1019.24
2018-07-23T10:23:15.197Z,1019.22
2018-07-23T10:24:14.964Z,1019.19
2018-07-23T10:25:15.801Z,1019.2
2018-07-23T10:26:14.908Z,1019.15
2018-07-23T10:27:14.946Z,1019.19
2018-07-23T10:28:14.980Z,1019.16
2018-07-23T10:29:14.931Z,1019.15
2018-07-23T10:30:14.921Z,1019.15
2018-07-23T10:31:14.977Z,1019.13
2018-07-23T10:32:15.086Z,1019.11
2018-07-23T10:33:15.038Z,1019.11
2018-07-23T10:34:14.959Z,1019.13
2018-07-23T10:35:15.229Z,1019.11
2018-07-23T10:36:14.994Z,1019.15
2018-07-23T10:37:15.006Z,1019.14
2018-07-23T10:38:15.091Z,1019.13
2018-07-23T10:39:16.056Z,1019.13
2018-07-23T10:40:14.944Z,1019.09
2018-07-23T10:41:15.130Z,1019.11
2018-07-23T10:42:14.959Z,1019.1
2018-07-23T10:43:14.922Z,1019.11
2018-07-23T10:44:15.033Z,1019.1
2018-07-23T10:45:19.778Z,1019.14
2018-07-23T10:46:14.999Z,1019.14
2018-07-23T10:47:15.000Z,1019.13
2018-07-23T10:48:14.959Z,1019.07
2018-07-23T10:49:15.252Z,1019.09
2018-07-23T10:50:16.251Z,1019.1
2018-07-23T10:51:15.762Z,1019.06
2018-07-23T10:52:16.445Z,1019.04
2018-07-23T10:53:14.940Z,1019.03
2018-07-23T10:54:14.945Z,1019.05
2018-07-23T10:55:14.903Z,1019.04
2018-07-23T10:56:14.912Z,1019.03
2018-07-23T10:57:15.056Z,1018.98
2018-07-23T10:58:14.922Z,1018.96
2018-07-23T10:59:14.929Z,1018.95
2018-07-23T11:00:16.521Z,1018.94
2018-07-23T11:01:14.937Z,1018.94
2018-07-23T11:02:15.656Z,1018.91
2018-07-23T11:03:14.941Z,1018.92
2018-07-23T11:04:14.985Z,1018.94
2018-07-23T11:05:14.936Z,1018.88
2018-07-23T11:06:16.355Z,1018.9
2018-07-23T11:07:15.006Z,1018.89
2018-07-23T11:08:14.937Z,1018.86
2018-07-23T11:09:14.945Z,1018.88
2018-07-23T11:10:14.987Z,1018.83
2018-07-23T11:11:14.964Z,1018.81
2018-07-23T11:12:15.087Z,1018.82
2018-07-23T11:13:15.020Z,1018.82
2018-07-23T11:14:15.028Z,1018.8
2018-07-23T11:15:15.078Z,1018.77
2018-07-23T11:16:14.957Z,1018.79
2018-07-23T11:17:14.986Z,1018.78
2018-07-23T11:18:15.130Z,1018.82
2018-07-23T11:19:15.390Z,1018.8
2018-07-23T11:20:15.115Z,1018.75
2018-07-23T11:21:14.974Z,1018.81
2018-07-23T11:22:14.954Z,1018.77
2018-07-23T11:23:14.978Z,1018.78
2018-07-23T11:24:15.156Z,1018.77
2018-07-23T11:25:40.662Z,1018.78
2018-07-23T11:26:15.050Z,1018.8
2018-07-23T11:27:15.064Z,1018.78
2018-07-23T11:28:15.706Z,1018.77
2018-07-23T11:29:14.951Z,1018.77
2018-07-23T11:30:15.086Z,1018.73
2018-07-23T11:31:15.499Z,1018.73
2018-07-23T11:32:15.825Z,1018.75
2018-07-23T11:33:14.966Z,1018.74
2018-07-23T11:34:20.547Z,1018.72
2018-07-23T11:35:15.018Z,1018.73
2018-07-23T11:36:14.949Z,1018.66
2018-07-23T11:37:14.953Z,1018.69
2018-07-23T11:38:14.940Z,1018.67
2018-07-23T11:39:15.012Z,1018.62
2018-07-23T11:40:15.118Z,1018.62
2018-07-23T11:41:15.128Z,1018.64
2018-07-23T11:42:15.011Z,1018.6
2018-07-23T11:43:15.012Z,1018.66
2018-07-23T11:44:15.051Z,1018.61
2018-07-23T11:45:15.417Z,1018.63
2018-07-23T11:46:25.252Z,1018.66
2018-07-23T11:47:15.081Z,1018.66
2018-07-23T11:48:14.998Z,1018.62
2018-07-23T11:49:15.078Z,1018.63
2018-07-23T11:50:15.032Z,1018.59
2018-07-23T11:51:15.250Z,1018.6
2018-07-23T11:52:14.989Z,1018.61
2018-07-23T11:53:15.047Z,1018.57
2018-07-23T11:54:14.984Z,1018.56
2018-07-23T11:55:14.965Z,1018.56
2018-07-23T11:56:15.018Z,1018.56
2018-07-23T11:57:15.003Z,1018.58
2018-07-23T11:58:15.009Z,1018.58
2018-07-23T11:59:14.997Z,1018.58
2018-07-23T12:00:15.202Z,1018.6
2018-07-23T12:01:15.031Z,1018.54
2018-07-23T12:02:15.203Z,1018.59
2018-07-23T12:03:14.973Z,1018.57
2018-07-23T12:04:15.175Z,1018.56
2018-07-23T12:05:14.991Z,1018.48
2018-07-23T12:06:14.995Z,1018.54
2018-07-23T12:07:15.022Z,1018.53
2018-07-23T12:08:14.993Z,1018.52